Time;durP1;ratioP1;P1;durP2;ratioP2;P2;SDS_P1;SDS_P2;PMS_P1;PMS_P2;Temp;Humidity;BMP_temperature;BMP_pressure;BME280_temperature;BME280_humidity;BME280_pressure;Samples;Min_cycle;Max_cycle;Signal;HPM_P1;HPM_P2
2022/10/13 00:00:50;;;;;;;22.83;8.48;;;10.00;73.60;;;;;;9181529;19;20011;-63
2022/10/13 00:03:55;;;;;;;18.30;7.90;;;10.00;73.70;;;;;;9181668;19;20014;-60
2022/10/13 00:07:01;;;;;;;22.58;8.23;;;10.00;73.70;;;;;;9181844;19;20018;-61
2022/10/13 00:10:05;;;;;;;24.85;8.23;;;10.00;73.80;;;;;;9181041;19;20383;-62
2022/10/13 00:13:10;;;;;;;21.00;8.23;;;10.00;73.80;;;;;;9178992;19;20022;-60
2022/10/13 00:16:15;;;;;;;18.00;7.80;;;10.00;73.80;;;;;;9176754;19;20040;-61
2022/10/13 00:19:19;;;;;;;16.13;7.57;;;10.00;73.80;;;;;;9177729;19;20402;-61
2022/10/13 00:22:25;;;;;;;21.13;8.23;;;10.00;73.80;;;;;;9180467;19;20043;-62
2022/10/13 00:25:28;;;;;;;21.80;7.93;;;10.00;73.80;;;;;;9175188;19;20018;-62
2022/10/13 00:28:32;;;;;;;20.95;8.02;;;10.00;73.80;;;;;;9179378;19;20022;-60
2022/10/13 00:31:36;;;;;;;18.13;8.07;;;10.00;73.80;;;;;;9175348;19;20014;-61
2022/10/13 00:34:41;;;;;;;17.33;7.97;;;10.00;73.90;;;;;;9177164;19;20013;-61
2022/10/13 00:37:46;;;;;;;24.50;8.60;;;10.00;74.00;;;;;;9180162;19;20011;-62
2022/10/13 00:40:52;;;;;;;16.05;6.90;;;10.00;74.10;;;;;;9180597;19;20024;-63
2022/10/13 00:43:58;;;;;;;20.67;7.43;;;10.00;74.10;;;;;;9180412;19;20014;-63
2022/10/13 00:47:02;;;;;;;20.25;8.15;;;10.00;74.20;;;;;;9180185;19;20471;-61
2022/10/13 00:50:11;;;;;;;21.90;7.78;;;10.10;74.20;;;;;;9180223;19;20011;-62
2022/10/13 00:53:18;;;;;;;16.75;8.30;;;10.10;74.30;;;;;;9180171;19;20086;-60
2022/10/13 00:56:24;;;;;;;18.00;8.15;;;10.10;74.40;;;;;;9177133;19;20023;-61
2022/10/13 00:59:29;;;;;;;21.25;7.95;;;10.10;74.40;;;;;;9180069;19;20644;-61
2022/10/13 01:02:37;;;;;;;14.65;7.25;;;10.10;74.50;;;;;;9180951;19;20027;-61
2022/10/13 01:05:43;;;;;;;19.42;8.02;;;10.10;74.50;;;;;;9177070;19;20387;-60
2022/10/13 01:08:49;;;;;;;21.40;8.30;;;10.10;74.50;;;;;;9179210;19;20094;-60
2022/10/13 01:12:03;;;;;;;31.73;8.55;;;10.10;74.60;;;;;;9179237;19;20011;-62
2022/10/13 01:15:12;;;;;;;19.42;8.07;;;10.20;74.80;;;;;;9177543;19;20440;-61
2022/10/13 01:18:27;;;;;;;19.10;7.78;;;10.20;74.80;;;;;;9179379;19;20015;-61
2022/10/13 01:21:34;;;;;;;19.52;8.55;;;10.20;74.80;;;;;;9178926;19;20097;-61
2022/10/13 01:24:47;;;;;;;22.70;9.02;;;10.20;74.80;;;;;;9174999;19;20086;-63
2022/10/13 01:28:15;;;;;;;23.98;8.27;;;10.30;75.00;;;;;;9173646;19;20018;-63
2022/10/13 01:31:25;;;;;;;16.45;7.72;;;10.30;75.00;;;;;;9177117;19;20022;-65
2022/10/13 01:34:34;;;;;;;19.88;8.18;;;10.30;74.90;;;;;;9176372;19;20022;-62
2022/10/13 01:37:45;;;;;;;21.95;7.90;;;10.40;75.00;;;;;;9178105;19;20414;-61
2022/10/13 01:40:57;;;;;;;29.85;9.15;;;10.40;75.10;;;;;;9178174;19;20031;-62
2022/10/13 01:44:07;;;;;;;25.00;7.82;;;10.40;75.10;;;;;;9178068;19;20506;-61
2022/10/13 01:47:16;;;;;;;22.90;7.93;;;10.50;75.20;;;;;;9178074;19;20476;-60
2022/10/13 01:50:21;;;;;;;18.67;7.80;;;10.50;75.20;;;;;;9178526;19;20006;-61
2022/10/13 01:53:26;;;;;;;28.33;8.32;;;10.50;75.20;;;;;;9175186;19;20094;-62
2022/10/13 01:56:30;;;;;;;23.17;8.88;;;10.60;75.30;;;;;;9174672;19;20090;-63
2022/10/13 01:59:37;;;;;;;25.73;8.50;;;10.60;75.30;;;;;;9177673;19;20011;-62
2022/10/13 02:02:50;;;;;;;23.58;7.80;;;10.60;75.30;;;;;;9177585;19;20400;-61
2022/10/13 02:06:03;;;;;;;24.45;9.02;;;10.60;75.30;;;;;;9174878;19;20010;-59
2022/10/13 02:09:20;;;;;;;19.23;8.63;;;10.60;75.40;;;;;;9177684;19;20046;-61
2022/10/13 02:12:30;;;;;;;22.88;9.25;;;10.70;75.40;;;;;;9176514;19;20107;-64
2022/10/13 02:15:39;;;;;;;21.27;8.65;;;10.80;75.50;;;;;;9173265;19;20026;-60
2022/10/13 02:18:47;;;;;;;21.50;8.40;;;10.80;75.50;;;;;;9177751;19;20019;-61
2022/10/13 02:21:52;;;;;;;17.83;8.20;;;10.80;75.50;;;;;;9176344;19;20375;-62
2022/10/13 02:24:56;;;;;;;16.20;8.15;;;10.80;75.50;;;;;;9172479;19;20010;-62
2022/10/13 02:28:00;;;;;;;;;;;10.90;75.60;;;;;;9175868;19;20416;-62
2022/10/13 02:31:09;;;;;;;29.02;9.50;;;10.90;75.50;;;;;;9176984;19;20320;-60
2022/10/13 02:34:15;;;;;;;24.10;8.70;;;10.90;75.40;;;;;;9176045;19;20498;-62
2022/10/13 02:37:24;;;;;;;17.63;8.82;;;10.90;75.50;;;;;;9174494;19;20014;-62
2022/10/13 02:40:28;;;;;;;23.90;9.68;;;11.00;75.50;;;;;;9176041;19;20852;-63
2022/10/13 02:43:32;;;;;;;22.38;8.68;;;11.00;75.60;;;;;;9178967;19;20088;-61
2022/10/13 02:46:36;;;;;;;;;;;11.10;75.70;;;;;;9182540;19;20086;-62
2022/10/13 02:49:41;;;;;;;21.23;7.25;;;11.10;75.70;;;;;;9182804;19;20340;-60
2022/10/13 02:52:45;;;;;;;19.83;9.00;;;11.10;75.50;;;;;;9183886;19;20090;-61
2022/10/13 02:55:49;;;;;;;32.67;11.07;;;11.10;75.60;;;;;;9183103;19;20017;-60
2022/10/13 02:58:52;;;;;;;17.73;8.93;;;11.10;75.60;;;;;;9183667;19;20111;-64
2022/10/13 03:01:56;;;;;;;19.77;9.27;;;11.10;75.70;;;;;;9183463;19;20015;-62
2022/10/13 03:05:03;;;;;;;22.38;8.77;;;11.20;75.80;;;;;;9180791;19;20104;-61
2022/10/13 03:08:07;;;;;;;33.88;10.40;;;11.20;75.80;;;;;;9183898;19;20015;-62
2022/10/13 03:11:11;;;;;;;26.70;10.13;;;11.20;75.90;;;;;;9182935;19;20842;-61
2022/10/13 03:14:15;;;;;;;25.73;10.38;;;11.20;75.90;;;;;;9182630;19;20097;-64
2022/10/13 03:17:19;;;;;;;22.77;10.45;;;11.30;75.90;;;;;;9182700;19;20078;-59
2022/10/13 03:20:24;;;;;;;26.85;10.15;;;11.30;75.90;;;;;;9180157;19;20458;-60
2022/10/13 03:23:28;;;;;;;23.23;9.73;;;11.30;76.00;;;;;;9178896;19;20483;-60
2022/10/13 03:26:32;;;;;;;31.50;9.88;;;11.30;76.00;;;;;;9183277;19;20083;-61
2022/10/13 03:29:36;;;;;;;28.00;10.20;;;11.30;76.00;;;;;;9182167;19;20068;-62
2022/10/13 03:32:40;;;;;;;25.00;10.95;;;11.40;76.10;;;;;;9182206;19;20028;-61
2022/10/13 03:35:45;;;;;;;;;;;11.40;76.10;;;;;;9181275;19;20024;-59
2022/10/13 03:38:49;;;;;;;25.27;9.52;;;11.40;76.10;;;;;;9180542;19;19915;-62
2022/10/13 03:41:53;;;;;;;23.17;9.90;;;11.40;75.90;;;;;;9182504;19;20024;-63
2022/10/13 03:44:56;;;;;;;21.42;9.70;;;11.40;76.00;;;;;;9182001;19;20022;-62
2022/10/13 03:48:00;;;;;;;20.92;10.43;;;11.40;76.00;;;;;;9181935;19;20014;-63
2022/10/13 03:51:07;;;;;;;21.85;9.75;;;11.40;76.10;;;;;;9181971;19;20013;-61
2022/10/13 03:54:12;;;;;;;19.65;10.02;;;11.40;76.10;;;;;;9181299;19;20014;-63
2022/10/13 03:57:16;;;;;;;22.67;10.75;;;11.50;76.20;;;;;;9180399;19;20616;-61
2022/10/13 04:00:20;;;;;;;26.00;10.32;;;11.50;76.30;;;;;;9181188;19;20082;-61
2022/10/13 04:03:23;;;;;;;22.25;10.30;;;11.50;76.90;;;;;;9180737;19;20105;-61
2022/10/13 04:06:30;;;;;;;21.63;9.85;;;11.50;76.30;;;;;;9178271;19;20019;-61
2022/10/13 04:09:33;;;;;;;19.08;9.40;;;11.50;76.40;;;;;;9182100;19;20010;-61
2022/10/13 04:12:37;;;;;;;19.90;10.43;;;11.50;76.40;;;;;;9180187;19;20039;-63
2022/10/13 04:15:41;;;;;;;23.02;9.93;;;11.50;76.40;;;;;;9178720;19;20415;-61
2022/10/13 04:18:46;;;;;;;21.00;9.48;;;11.50;76.50;;;;;;9178938;19;20120;-62
2022/10/13 04:21:52;;;;;;;27.55;10.93;;;11.50;76.50;;;;;;9180719;19;20015;-61
2022/10/13 04:24:56;;;;;;;20.35;9.48;;;11.50;76.50;;;;;;9177022;19;20328;-61
2022/10/13 04:28:00;;;;;;;27.73;10.77;;;11.50;76.50;;;;;;9181144;19;20027;-61
2022/10/13 04:31:04;;;;;;;17.98;9.68;;;11.60;76.70;;;;;;9180812;19;20015;-61
2022/10/13 04:34:10;;;;;;;16.20;9.55;;;11.50;76.60;;;;;;9181231;19;20013;-62
2022/10/13 04:37:15;;;;;;;35.70;10.57;;;11.60;76.60;;;;;;9177325;19;20011;-62
2022/10/13 04:40:19;;;;;;;24.00;10.88;;;11.60;76.60;;;;;;9180204;19;20142;-61
2022/10/13 04:43:23;;;;;;;17.80;9.50;;;11.50;76.60;;;;;;9178675;19;20876;-62
2022/10/13 04:46:27;;;;;;;21.83;10.30;;;11.60;76.70;;;;;;9180869;19;20021;-62
2022/10/13 04:49:32;;;;;;;27.40;10.23;;;11.60;76.70;;;;;;9179962;19;20006;-60
2022/10/13 04:52:38;;;;;;;20.70;10.35;;;11.60;76.80;;;;;;9180625;19;20010;-63
2022/10/13 04:55:42;;;;;;;19.33;10.15;;;11.60;76.80;;;;;;9178221;19;20061;-60
2022/10/13 04:58:47;;;;;;;29.45;10.88;;;11.60;76.90;;;;;;9180184;19;20467;-62
2022/10/13 05:01:50;;;;;;;27.00;11.10;;;11.60;76.90;;;;;;9179423;19;20371;-60
2022/10/13 05:04:54;;;;;;;26.80;10.95;;;11.60;76.90;;;;;;9175136;19;20089;-61
2022/10/13 05:08:00;;;;;;;26.90;10.40;;;11.60;77.00;;;;;;9179431;19;20046;-63
2022/10/13 05:11:04;;;;;;;24.05;11.30;;;11.60;77.00;;;;;;9178042;19;20014;-61
2022/10/13 05:14:07;;;;;;;29.20;11.27;;;11.60;77.00;;;;;;9179896;19;20029;-62
2022/10/13 05:17:11;;;;;;;23.55;10.65;;;11.70;77.00;;;;;;9175984;19;20023;-61
2022/10/13 05:20:16;;;;;;;26.67;9.82;;;11.70;77.00;;;;;;9179393;19;20401;-60
2022/10/13 05:23:22;;;;;;;29.15;11.65;;;11.70;77.10;;;;;;9174752;19;20010;-62
2022/10/13 05:26:28;;;;;;;18.67;10.60;;;11.70;77.10;;;;;;9176817;19;20014;-60
2022/10/13 05:29:32;;;;;;;29.58;11.18;;;11.70;77.10;;;;;;9179059;19;20018;-62
2022/10/13 05:32:36;;;;;;;24.10;11.43;;;11.70;77.20;;;;;;9178314;19;20023;-62
2022/10/13 05:35:40;;;;;;;26.67;11.73;;;11.70;77.20;;;;;;9175913;19;20018;-60
2022/10/13 05:38:47;;;;;;;19.05;10.85;;;11.70;77.20;;;;;;9176582;19;20078;-62
2022/10/13 05:41:51;;;;;;;24.95;11.50;;;11.80;77.30;;;;;;9177401;19;20085;-61
2022/10/13 05:44:58;;;;;;;20.05;10.65;;;11.80;77.30;;;;;;9176822;19;20014;-61
2022/10/13 05:48:01;;;;;;;30.02;12.68;;;11.80;77.30;;;;;;9175945;19;20082;-61
2022/10/13 05:51:08;;;;;;;23.10;10.70;;;11.80;77.30;;;;;;9177182;19;20510;-62
2022/10/13 05:54:17;;;;;;;22.45;11.05;;;11.80;77.40;;;;;;9178240;19;20114;-63
2022/10/13 05:57:24;;;;;;;34.00;12.73;;;11.90;77.50;;;;;;9172918;19;20022;-62
2022/10/13 06:00:27;;;;;;;25.52;11.90;;;11.80;77.40;;;;;;9177598;19;20359;-59
2022/10/13 06:03:31;;;;;;;26.67;12.35;;;11.90;77.50;;;;;;9177478;19;20038;-63
2022/10/13 06:06:35;;;;;;;27.67;12.82;;;11.90;77.60;;;;;;9174419;19;20014;-61
2022/10/13 06:09:42;;;;;;;28.00;12.77;;;11.90;77.60;;;;;;9172732;19;20027;-60
2022/10/13 06:12:45;;;;;;;25.08;10.57;;;11.90;77.60;;;;;;9172721;19;20025;-61
2022/10/13 06:15:49;;;;;;;19.40;10.82;;;11.90;77.60;;;;;;9167688;19;20018;-62
2022/10/13 06:18:53;;;;;;;22.63;11.70;;;12.00;77.60;;;;;;9174404;19;20111;-66
2022/10/13 06:21:57;;;;;;;23.80;11.88;;;11.90;77.70;;;;;;9178168;19;20014;-63
2022/10/13 06:25:10;;;;;;;23.02;10.98;;;11.90;77.60;;;;;;9173880;19;20024;-61
2022/10/13 06:28:13;;;;;;;26.33;12.07;;;11.90;77.70;;;;;;9175653;19;20074;-63
2022/10/13 06:31:17;;;;;;;23.52;11.43;;;12.00;77.80;;;;;;9168867;19;20019;-64
2022/10/13 06:34:21;;;;;;;26.00;12.15;;;12.00;77.70;;;;;;9184380;19;20033;-61
2022/10/13 06:37:24;;;;;;;25.27;12.48;;;12.00;77.80;;;;;;9181515;19;20024;-61
2022/10/13 06:40:32;;;;;;;25.60;11.52;;;12.00;77.80;;;;;;9184467;19;20017;-61
2022/10/13 06:43:36;;;;;;;37.33;12.95;;;12.00;77.90;;;;;;9183947;19;20014;-63
2022/10/13 06:46:46;;;;;;;26.27;11.88;;;12.00;77.90;;;;;;9184780;19;20010;-62
2022/10/13 06:49:50;;;;;;;20.00;11.25;;;12.00;78.00;;;;;;9184053;19;20049;-60
2022/10/13 06:52:56;;;;;;;24.27;12.20;;;12.00;78.00;;;;;;9184251;19;20010;-61
2022/10/13 06:56:05;;;;;;;25.33;11.70;;;12.00;78.70;;;;;;9182237;19;20007;-61
2022/10/13 06:59:09;;;;;;;27.65;12.30;;;12.00;78.10;;;;;;9184250;19;20025;-61
2022/10/13 07:02:13;;;;;;;23.23;12.10;;;12.00;78.10;;;;;;9183531;19;20018;-63
2022/10/13 07:05:17;;;;;;;21.15;12.00;;;12.10;78.20;;;;;;9180427;19;20412;-62
2022/10/13 07:08:23;;;;;;;29.08;12.57;;;12.10;78.20;;;;;;9175634;19;20483;-63
2022/10/13 07:11:29;;;;;;;25.15;12.07;;;12.10;78.20;;;;;;9181091;19;20014;-62
2022/10/13 07:14:36;;;;;;;28.92;13.20;;;12.20;78.30;;;;;;9182589;19;20018;-65
2022/10/13 07:17:43;;;;;;;32.50;13.63;;;12.20;78.40;;;;;;9183361;19;20025;-63
2022/10/13 07:20:47;;;;;;;24.52;12.80;;;12.20;78.40;;;;;;9182445;19;20424;-64
2022/10/13 07:23:50;;;;;;;30.70;13.13;;;12.30;78.70;;;;;;9177870;19;20364;-64
2022/10/13 07:26:56;;;;;;;29.55;13.32;;;12.30;78.50;;;;;;9180677;19;20022;-65
2022/10/13 07:30:00;;;;;;;29.38;13.27;;;12.30;78.50;;;;;;9180371;19;20018;-63
2022/10/13 07:33:03;;;;;;;28.98;13.30;;;12.30;78.50;;;;;;9181988;19;21187;-64
2022/10/13 07:36:08;;;;;;;30.95;14.27;;;12.40;78.60;;;;;;9180694;19;20088;-64
2022/10/13 07:39:12;;;;;;;31.02;12.32;;;12.40;78.60;;;;;;9182144;19;20036;-64
2022/10/13 07:42:17;;;;;;;24.80;12.35;;;12.40;78.60;;;;;;9181873;19;20364;-63
2022/10/13 07:45:21;;;;;;;29.95;11.98;;;12.50;78.70;;;;;;9182359;19;20095;-63
2022/10/13 07:48:25;;;;;;;22.50;12.10;;;12.50;78.70;;;;;;9182101;19;20025;-64
2022/10/13 07:51:30;;;;;;;26.13;12.32;;;12.50;78.70;;;;;;9177761;19;20022;-60
2022/10/13 07:54:34;;;;;;;24.27;12.15;;;12.60;78.80;;;;;;9180965;19;20125;-63
2022/10/13 07:57:40;;;;;;;31.95;13.00;;;12.60;78.80;;;;;;9178500;19;20520;-62
2022/10/13 08:00:43;;;;;;;24.38;12.18;;;12.60;78.80;;;;;;9179857;19;20109;-60
2022/10/13 08:03:47;;;;;;;31.67;14.00;;;12.70;78.80;;;;;;9177577;19;20376;-60
2022/10/13 08:06:54;;;;;;;28.00;10.80;;;12.70;78.90;;;;;;9172762;19;20471;-67
2022/10/13 08:09:58;;;;;;;24.67;12.18;;;12.80;78.90;;;;;;9168115;19;20018;-64
2022/10/13 08:13:04;;;;;;;24.95;11.88;;;12.80;78.90;;;;;;9171428;19;20097;-63
2022/10/13 08:16:08;;;;;;;29.52;12.50;;;12.90;79.00;;;;;;9161998;19;20044;-65
2022/10/13 08:19:11;;;;;;;26.40;12.30;;;13.00;79.10;;;;;;9167801;19;20056;-62
2022/10/13 08:22:15;;;;;;;26.15;12.45;;;13.00;79.00;;;;;;9167126;19;20037;-62
2022/10/13 08:25:19;;;;;;;26.30;11.60;;;13.10;79.10;;;;;;9161202;19;20034;-66
2022/10/13 08:28:27;;;;;;;27.80;12.75;;;13.10;79.10;;;;;;9169346;19;20894;-61
2022/10/13 08:31:31;;;;;;;27.15;11.73;;;13.20;79.10;;;;;;9163882;19;20022;-65
2022/10/13 08:34:35;;;;;;;33.35;12.13;;;13.30;79.10;;;;;;9169504;19;20019;-63
2022/10/13 08:37:39;;;;;;;;;;;13.30;79.00;;;;;;9165386;19;20034;-61
2022/10/13 08:40:47;;;;;;;33.50;11.32;;;13.40;79.00;;;;;;9167303;19;19972;-63
2022/10/13 08:43:55;;;;;;;31.55;11.95;;;13.40;78.80;;;;;;9170545;19;20057;-64
2022/10/13 08:47:30;;;;;;;31.73;13.20;;;13.50;79.00;;;;;;9168398;19;20011;-62
2022/10/13 08:50:37;;;;;;;25.98;11.35;;;13.60;79.10;;;;;;9175731;19;20109;-62
2022/10/13 08:53:43;;;;;;;28.92;12.38;;;13.70;79.10;;;;;;9173796;19;20030;-61
2022/10/13 08:56:49;;;;;;;26.15;12.38;;;13.70;79.00;;;;;;9167171;19;20017;-61
2022/10/13 08:59:55;;;;;;;28.58;13.18;;;13.70;79.00;;;;;;9176445;19;20102;-61
2022/10/13 09:03:08;;;;;;;30.92;12.07;;;13.80;79.00;;;;;;9175674;19;20113;-63
2022/10/13 09:06:16;;;;;;;31.10;12.20;;;13.90;79.10;;;;;;9168144;19;20624;-61
2022/10/13 09:09:20;;;;;;;25.15;11.63;;;14.00;79.00;;;;;;9177452;19;20021;-63
2022/10/13 09:12:28;;;;;;;25.65;12.70;;;14.00;79.60;;;;;;9171907;19;20029;-63
2022/10/13 09:15:44;;;;;;;27.20;12.00;;;14.10;79.00;;;;;;9171040;19;20022;-64
2022/10/13 09:18:48;;;;;;;20.38;11.52;;;14.10;79.00;;;;;;9178919;19;20011;-62
2022/10/13 09:21:54;;;;;;;29.98;12.05;;;14.20;78.90;;;;;;9171927;19;20023;-63
2022/10/13 09:25:21;;;;;;;32.15;11.93;;;14.20;78.90;;;;;;9167815;19;20026;-62
2022/10/13 09:28:27;;;;;;;29.85;12.18;;;14.20;79.00;;;;;;9172093;19;20459;-62
2022/10/13 09:31:34;;;;;;;27.80;11.23;;;14.20;78.80;;;;;;9168733;19;20022;-61
2022/10/13 09:34:38;;;;;;;28.45;12.68;;;14.20;78.80;;;;;;9172982;19;20037;-61
2022/10/13 09:37:42;;;;;;;26.80;12.27;;;14.30;78.90;;;;;;9175519;19;20014;-63
2022/10/13 09:40:56;;;;;;;28.90;12.35;;;14.30;78.90;;;;;;9172473;19;20885;-63
2022/10/13 09:44:06;;;;;;;25.73;12.13;;;14.30;79.00;;;;;;9171475;19;20038;-63
2022/10/13 09:47:19;;;;;;;26.67;12.82;;;14.30;79.00;;;;;;9171564;19;20023;-62
2022/10/13 09:50:26;;;;;;;22.85;12.05;;;14.40;79.20;;;;;;9177593;19;20340;-62
2022/10/13 09:53:34;;;;;;;31.48;12.70;;;14.40;79.10;;;;;;9167591;19;20049;-61
2022/10/13 09:56:44;;;;;;;26.17;12.32;;;14.50;79.20;;;;;;9175908;19;20014;-64
2022/10/13 09:59:50;;;;;;;26.88;12.20;;;14.50;79.30;;;;;;9170040;19;20349;-63
2022/10/13 10:03:02;;;;;;;30.35;13.75;;;14.50;79.30;;;;;;9166451;19;20018;-61
2022/10/13 10:06:08;;;;;;;32.53;15.13;;;14.50;79.40;;;;;;9160838;19;20014;-62
2022/10/13 10:09:37;;;;;;;22.75;13.20;;;14.50;79.40;;;;;;9170347;19;20448;-64
2022/10/13 10:12:44;;;;;;;28.48;12.82;;;14.60;79.40;;;;;;9171169;19;20409;-64
2022/10/13 10:15:56;;;;;;;21.05;11.02;;;14.60;79.50;;;;;;9167932;19;20123;-62
2022/10/13 10:19:08;;;;;;;29.23;12.45;;;14.60;79.60;;;;;;9169253;19;20095;-62
2022/10/13 10:22:24;;;;;;;28.23;12.38;;;14.60;79.60;;;;;;9166014;19;20080;-61
2022/10/13 10:25:34;;;;;;;24.40;12.95;;;14.70;79.60;;;;;;9163422;19;20554;-61
2022/10/13 10:29:05;;;;;;;27.30;13.20;;;14.70;79.60;;;;;;9173493;19;20023;-62
2022/10/13 10:32:27;;;;;;;27.73;12.10;;;14.70;79.70;;;;;;9164820;19;20018;-61
2022/10/13 10:35:43;;;;;;;24.33;13.23;;;14.70;79.80;;;;;;9164442;19;20082;-66
2022/10/13 10:38:52;;;;;;;26.58;12.60;;;14.80;79.70;;;;;;9172459;19;20032;-65
2022/10/13 10:42:03;;;;;;;27.05;13.30;;;14.80;79.70;;;;;;9169471;19;20014;-61
2022/10/13 10:45:17;;;;;;;26.42;14.02;;;14.80;79.80;;;;;;9165401;19;20024;-63
2022/10/13 10:48:23;;;;;;;28.17;13.98;;;14.80;79.80;;;;;;9163696;19;20015;-61
2022/10/13 10:51:36;;;;;;;31.50;14.40;;;14.80;79.80;;;;;;9163582;19;20110;-62
2022/10/13 10:54:48;;;;;;;28.58;14.57;;;14.80;79.90;;;;;;9167045;19;20669;-62
2022/10/13 10:58:00;;;;;;;27.65;15.60;;;14.80;79.90;;;;;;9158007;19;20115;-61
2022/10/13 11:01:08;;;;;;;20.60;12.77;;;14.90;80.00;;;;;;9168179;19;20018;-60
2022/10/13 11:04:41;;;;;;;28.42;12.82;;;14.90;80.00;;;;;;9168732;19;20025;-62
2022/10/13 11:08:00;;;;;;;31.83;13.18;;;15.00;80.30;;;;;;9175669;19;20018;-62
2022/10/13 11:11:33;;;;;;;25.63;13.07;;;15.00;80.30;;;;;;9177423;19;20353;-62
2022/10/13 11:14:46;;;;;;;27.40;13.73;;;15.10;80.40;;;;;;9178536;19;20019;-63
2022/10/13 11:17:51;;;;;;;30.58;12.82;;;15.20;80.40;;;;;;9179495;19;20082;-61
2022/10/13 11:21:00;;;;;;;26.95;12.10;;;15.20;80.20;;;;;;9182004;19;20048;-61
2022/10/13 11:24:25;;;;;;;27.67;11.50;;;15.30;80.30;;;;;;9177851;19;20014;-61
2022/10/13 11:27:41;;;;;;;27.00;11.55;;;15.40;80.30;;;;;;9182534;19;20018;-61
2022/10/13 11:30:49;;;;;;;20.30;11.13;;;15.50;80.40;;;;;;9182893;19;20110;-61
2022/10/13 11:33:58;;;;;;;23.00;10.95;;;15.50;80.20;;;;;;9182672;19;20013;-60
2022/10/13 11:37:04;;;;;;;21.38;11.23;;;15.60;80.20;;;;;;9180231;19;20042;-62
2022/10/13 11:40:20;;;;;;;24.45;11.32;;;15.70;80.20;;;;;;9166757;19;20151;-60
2022/10/13 11:43:43;;;;;;;24.52;10.32;;;15.80;80.30;;;;;;9171477;19;20018;-62
2022/10/13 11:47:01;;;;;;;23.35;10.07;;;15.90;80.30;;;;;;9166935;19;20023;-61
2022/10/13 11:50:14;;;;;;;24.27;10.98;;;15.90;80.20;;;;;;9175792;19;20014;-61
2022/10/13 11:53:20;;;;;;;21.77;10.40;;;16.00;80.00;;;;;;9173687;19;20040;-63
2022/10/13 11:56:35;;;;;;;18.80;9.50;;;16.20;80.00;;;;;;9172248;19;20022;-62
2022/10/13 11:59:47;;;;;;;23.75;9.27;;;16.20;80.00;;;;;;9173456;19;20014;-62
2022/10/13 12:02:53;;;;;;;24.42;9.30;;;16.30;79.90;;;;;;9172294;19;20147;-62
2022/10/13 12:06:02;;;;;;;21.83;9.07;;;16.40;79.80;;;;;;9172471;19;20057;-64
2022/10/13 12:09:16;;;;;;;21.85;9.70;;;16.50;79.70;;;;;;9173350;19;20023;-61
2022/10/13 12:12:23;;;;;;;21.13;9.15;;;16.60;79.70;;;;;;9168130;19;20022;-64
2022/10/13 12:15:34;;;;;;;22.48;9.60;;;16.60;79.50;;;;;;9172808;19;20089;-61
2022/10/13 12:18:40;;;;;;;28.42;8.52;;;16.60;79.40;;;;;;9171707;19;20557;-63
2022/10/13 12:21:50;;;;;;;23.08;8.75;;;16.70;79.40;;;;;;9175597;19;20661;-61
2022/10/13 12:24:59;;;;;;;22.25;8.13;;;16.70;79.30;;;;;;9169719;19;20082;-63
2022/10/13 12:28:05;;;;;;;19.17;7.82;;;16.70;79.20;;;;;;9167200;19;20022;-64
2022/10/13 12:31:19;;;;;;;16.55;7.55;;;16.80;79.20;;;;;;9166643;19;20014;-64
2022/10/13 12:34:26;;;;;;;16.45;8.07;;;16.80;79.20;;;;;;9169546;19;20006;-64
2022/10/13 12:37:35;;;;;;;20.40;7.88;;;16.80;79.10;;;;;;9168623;19;20748;-63
2022/10/13 12:40:40;;;;;;;23.02;8.40;;;16.90;79.10;;;;;;9168391;19;20029;-64
2022/10/13 12:43:46;;;;;;;26.08;8.20;;;16.90;79.00;;;;;;9168683;19;20062;-65
2022/10/13 12:46:54;;;;;;;27.75;9.23;;;16.80;79.00;;;;;;9170309;19;20022;-61
2022/10/13 12:50:22;;;;;;;16.90;9.05;;;16.90;79.00;;;;;;9172689;19;20021;-67
2022/10/13 12:53:29;;;;;;;15.48;9.00;;;16.90;79.00;;;;;;9173308;19;20026;-62
2022/10/13 12:56:34;;;;;;;27.30;9.95;;;16.80;78.90;;;;;;9171323;19;20026;-64
2022/10/13 12:59:43;;;;;;;22.27;8.85;;;16.80;79.00;;;;;;9173443;19;20023;-62
2022/10/13 13:02:52;;;;;;;23.48;9.38;;;16.80;79.10;;;;;;9170513;19;20047;-64
2022/10/13 13:06:23;;;;;;;19.25;8.90;;;16.80;79.10;;;;;;9165689;19;20027;-61
2022/10/13 13:09:28;;;;;;;20.25;9.93;;;16.70;79.10;;;;;;9170857;19;20081;-63
2022/10/13 13:12:32;;;;;;;26.45;10.10;;;16.70;79.10;;;;;;9168144;19;20022;-63
2022/10/13 13:15:40;;;;;;;20.23;9.25;;;16.70;79.10;;;;;;9167904;19;20057;-62
2022/10/13 13:18:47;;;;;;;23.02;10.40;;;16.60;79.10;;;;;;9168693;19;20018;-61
2022/10/13 13:21:50;;;;;;;22.55;9.77;;;16.60;79.10;;;;;;9173008;19;20074;-63
2022/10/13 13:24:54;;;;;;;27.75;11.48;;;16.60;79.20;;;;;;9168452;19;20018;-65
2022/10/13 13:27:58;;;;;;;21.38;11.05;;;16.50;79.10;;;;;;9167527;19;20022;-63
2022/10/13 13:31:03;;;;;;;25.15;11.88;;;16.50;79.80;;;;;;9172190;19;20014;-61
2022/10/13 13:34:07;;;;;;;24.60;11.20;;;16.50;79.20;;;;;;9172858;19;20011;-62
2022/10/13 13:37:15;;;;;;;21.83;11.40;;;16.40;79.20;;;;;;9167047;19;20026;-67
2022/10/13 13:40:21;;;;;;;29.67;12.60;;;16.40;79.20;;;;;;9172403;19;20014;-61
2022/10/13 13:43:25;;;;;;;24.25;11.80;;;16.40;79.30;;;;;;9168077;19;20660;-61
2022/10/13 13:46:31;;;;;;;21.40;11.20;;;16.30;79.30;;;;;;9168709;19;20043;-63
2022/10/13 13:49:34;;;;;;;24.40;11.38;;;16.30;79.30;;;;;;9168168;19;20031;-62
2022/10/13 13:52:38;;;;;;;25.63;12.25;;;16.30;79.40;;;;;;9170060;19;20593;-62
2022/10/13 13:55:43;;;;;;;28.52;12.60;;;16.20;79.40;;;;;;9171688;19;20098;-63
2022/10/13 13:58:47;;;;;;;21.88;12.05;;;16.20;79.40;;;;;;9169755;19;20022;-62
2022/10/13 14:01:53;;;;;;;;;;;16.20;79.50;;;;;;9165039;19;20022;-65
2022/10/13 14:04:58;;;;;;;26.25;11.98;;;16.20;79.50;;;;;;9161771;19;20018;-62
2022/10/13 14:08:03;;;;;;;27.17;12.73;;;16.20;79.40;;;;;;9165110;19;20022;-62
2022/10/13 14:11:07;;;;;;;28.95;12.25;;;16.10;79.50;;;;;;9163794;19;20022;-62
2022/10/13 14:14:11;;;;;;;25.95;12.63;;;16.20;79.60;;;;;;9165428;19;20043;-61
2022/10/13 14:17:16;;;;;;;28.00;12.27;;;16.10;79.60;;;;;;9166781;19;20106;-63
2022/10/13 14:20:20;;;;;;;28.85;13.48;;;16.10;79.70;;;;;;9166192;19;20422;-61
2022/10/13 14:23:24;;;;;;;;;;;16.10;79.70;;;;;;9171442;19;20438;-62
2022/10/13 14:26:27;;;;;;;26.83;12.25;;;16.10;80.40;;;;;;9176404;19;20283;-61
2022/10/13 14:29:31;;;;;;;21.55;11.98;;;16.10;79.60;;;;;;9176492;19;20567;-61
2022/10/13 14:32:37;;;;;;;28.40;12.60;;;16.00;79.70;;;;;;9176248;19;20029;-61
2022/10/13 14:35:41;;;;;;;29.08;12.63;;;16.00;79.80;;;;;;9172891;19;20017;-61
2022/10/13 14:38:46;;;;;;;24.20;13.23;;;16.00;79.80;;;;;;9175651;19;20025;-62
2022/10/13 14:41:49;;;;;;;24.77;12.80;;;16.00;79.90;;;;;;9182284;19;20046;-62
2022/10/13 14:44:53;;;;;;;21.33;11.27;;;16.00;79.90;;;;;;9184529;19;20349;-61
2022/10/13 14:47:58;;;;;;;20.10;11.32;;;15.90;79.90;;;;;;9184543;19;20078;-63
2022/10/13 14:51:05;;;;;;;24.80;13.77;;;15.90;79.90;;;;;;9183651;19;20341;-63
2022/10/13 14:54:09;;;;;;;25.35;11.68;;;15.90;80.00;;;;;;9183853;19;20539;-63
2022/10/13 14:57:14;;;;;;;;;;;15.90;80.00;;;;;;9183157;19;20022;-61
2022/10/13 15:00:18;;;;;;;23.88;11.18;;;15.80;80.60;;;;;;9182495;19;19923;-61
2022/10/13 15:03:26;;;;;;;;;;;15.80;79.80;;;;;;9183952;19;20013;-60
2022/10/13 15:06:30;;;;;;;25.75;11.63;;;15.80;79.90;;;;;;9181783;19;19915;-60
2022/10/13 15:09:34;;;;;;;20.40;10.80;;;15.80;79.80;;;;;;9183372;19;20082;-62
2022/10/13 15:12:57;;;;;;;28.57;12.10;;;15.70;79.90;;;;;;9184082;19;20037;-63
2022/10/13 15:16:03;;;;;;;19.88;11.40;;;15.70;80.00;;;;;;9182601;19;20017;-61
2022/10/13 15:19:09;;;;;;;27.65;12.05;;;15.70;80.00;;;;;;9183813;19;20015;-62
2022/10/13 15:22:12;;;;;;;22.95;11.85;;;15.60;80.00;;;;;;9182739;19;20028;-62
2022/10/13 15:25:16;;;;;;;24.10;12.98;;;15.60;80.10;;;;;;9178524;19;20564;-62
2022/10/13 15:28:20;;;;;;;;;;;15.60;80.10;;;;;;9184415;19;20039;-61
2022/10/13 15:31:24;;;;;;;25.42;11.75;;;15.60;80.10;;;;;;9179833;19;19919;-61
2022/10/13 15:34:30;;;;;;;23.25;12.15;;;15.60;80.00;;;;;;9182396;19;20018;-61
2022/10/13 15:37:33;;;;;;;28.42;12.50;;;15.50;80.10;;;;;;9177409;19;20021;-60
2022/10/13 15:40:40;;;;;;;22.38;11.98;;;15.50;80.10;;;;;;9175512;19;20026;-62
2022/10/13 15:43:44;;;;;;;23.98;12.18;;;15.50;80.20;;;;;;9176248;19;20098;-61
2022/10/13 15:46:48;;;;;;;27.38;12.57;;;15.50;80.20;;;;;;9175825;19;20047;-63
2022/10/13 15:50:13;;;;;;;20.90;10.73;;;15.50;80.30;;;;;;9176390;19;20034;-61
2022/10/13 15:53:17;;;;;;;23.80;11.90;;;15.50;80.40;;;;;;9179011;19;20078;-61
2022/10/13 15:56:21;;;;;;;20.42;11.43;;;15.50;80.50;;;;;;9180936;19;20022;-60